createdAt,value
2019-01-19T00:00:39.766Z,992.62
2019-01-19T00:01:39.738Z,992.61
2019-01-19T00:02:39.725Z,992.62
2019-01-19T00:03:39.710Z,992.62
2019-01-19T00:04:39.698Z,992.56
2019-01-19T00:05:39.681Z,992.57
2019-01-19T00:06:39.670Z,992.57
2019-01-19T00:07:39.655Z,992.63
2019-01-19T00:08:39.645Z,992.55
2019-01-19T00:09:39.630Z,992.59
2019-01-19T00:10:39.615Z,992.53
2019-01-19T00:11:39.611Z,992.54
2019-01-19T00:12:39.588Z,992.54
2019-01-19T00:13:39.584Z,992.53
2019-01-19T00:14:39.559Z,992.51
2019-01-19T00:15:39.550Z,992.5
2019-01-19T00:16:39.544Z,992.46
2019-01-19T00:17:39.518Z,992.51
2019-01-19T00:18:39.550Z,992.5
2019-01-19T00:19:39.492Z,992.48
2019-01-19T00:20:39.488Z,992.48
2019-01-19T00:21:39.465Z,992.47
2019-01-19T00:22:39.454Z,992.46
2019-01-19T00:23:39.447Z,992.46
2019-01-19T00:24:39.439Z,992.44
2019-01-19T00:25:39.414Z,992.47
2019-01-19T00:26:39.398Z,992.42
2019-01-19T00:27:39.383Z,992.44
2019-01-19T00:28:39.370Z,992.43
2019-01-19T00:29:39.359Z,992.41
2019-01-19T00:30:39.361Z,992.43
2019-01-19T00:31:39.343Z,992.45
2019-01-19T00:32:39.328Z,992.43
2019-01-19T00:33:39.306Z,992.43
2019-01-19T00:34:39.289Z,992.42
2019-01-19T00:35:39.283Z,992.43
2019-01-19T00:36:39.262Z,992.44
2019-01-19T00:37:39.249Z,992.39
2019-01-19T00:38:39.236Z,992.38
2019-01-19T00:39:39.222Z,992.41
2019-01-19T00:40:39.214Z,992.37
2019-01-19T00:41:39.194Z,992.36
2019-01-19T00:42:39.213Z,992.39
2019-01-19T00:43:39.170Z,992.39
2019-01-19T00:44:39.154Z,992.4
2019-01-19T00:45:39.145Z,992.37
2019-01-19T00:46:39.128Z,992.37
2019-01-19T00:47:39.113Z,992.4
2019-01-19T00:48:39.100Z,992.32
2019-01-19T00:49:39.099Z,992.35
2019-01-19T00:50:39.075Z,992.36
2019-01-19T00:51:39.070Z,992.42
2019-01-19T00:52:39.047Z,992.36
2019-01-19T00:53:39.045Z,992.38
2019-01-19T00:54:39.020Z,992.37
2019-01-19T00:55:39.013Z,992.37
2019-01-19T00:56:39.005Z,992.41
2019-01-19T00:57:38.978Z,992.42
2019-01-19T00:58:38.971Z,992.41
2019-01-19T00:59:38.949Z,992.4
2019-01-19T01:00:38.946Z,992.37
2019-01-19T01:01:38.925Z,992.4
2019-01-19T01:02:38.911Z,992.39
2019-01-19T01:03:38.896Z,992.42
2019-01-19T01:04:38.883Z,992.39
2019-01-19T01:05:38.876Z,992.35
2019-01-19T01:06:38.857Z,992.39
2019-01-19T01:07:38.855Z,992.38
2019-01-19T01:08:38.835Z,992.37
2019-01-19T01:09:38.817Z,992.37
2019-01-19T01:10:38.802Z,992.38
2019-01-19T01:11:38.807Z,992.34
2019-01-19T01:12:38.780Z,992.4
2019-01-19T01:13:38.764Z,992.37
2019-01-19T01:14:38.747Z,992.38
2019-01-19T01:15:38.735Z,992.36
2019-01-19T01:16:38.720Z,992.37
2019-01-19T01:17:38.708Z,992.38
2019-01-19T01:18:38.703Z,992.37
2019-01-19T01:19:38.681Z,992.37
2019-01-19T01:20:38.669Z,992.39
2019-01-19T01:21:38.655Z,992.37
2019-01-19T01:22:38.665Z,992.39
2019-01-19T01:23:38.624Z,992.41
2019-01-19T01:24:38.614Z,992.4
2019-01-19T01:25:38.613Z,992.4
2019-01-19T01:26:38.585Z,992.38
2019-01-19T01:27:38.580Z,992.36
2019-01-19T01:28:38.584Z,992.38
2019-01-19T01:29:38.566Z,992.35
2019-01-19T01:30:38.539Z,992.38
2019-01-19T01:31:38.528Z,992.32
2019-01-19T01:32:38.520Z,992.33
2019-01-19T01:33:38.497Z,992.34
2019-01-19T01:34:38.478Z,992.31
2019-01-19T01:35:38.468Z,992.29
2019-01-19T01:36:38.451Z,992.29
2019-01-19T01:37:38.438Z,992.31
2019-01-19T01:38:38.424Z,992.32
2019-01-19T01:39:38.421Z,992.33
2019-01-19T01:40:38.395Z,992.34
2019-01-19T01:41:38.382Z,992.32
2019-01-19T01:42:38.369Z,992.35
2019-01-19T01:43:38.354Z,992.32
2019-01-19T01:44:38.342Z,992.33
2019-01-19T01:45:38.330Z,992.31
2019-01-19T01:46:38.317Z,992.3
2019-01-19T01:47:38.300Z,992.26
2019-01-19T01:48:38.286Z,992.28
2019-01-19T01:49:38.273Z,992.25
2019-01-19T01:50:38.260Z,992.24
2019-01-19T01:51:38.245Z,992.23
2019-01-19T01:52:38.238Z,992.26
2019-01-19T01:53:38.220Z,992.25
2019-01-19T01:54:38.204Z,992.25
2019-01-19T01:55:38.214Z,992.22
2019-01-19T01:56:38.183Z,992.25
2019-01-19T01:57:38.165Z,992.26
2019-01-19T01:58:38.149Z,992.24
2019-01-19T01:59:38.133Z,992.25
2019-01-19T02:00:38.123Z,992.23
2019-01-19T02:01:38.128Z,992.24
2019-01-19T02:02:38.114Z,992.23
2019-01-19T02:03:38.081Z,992.21
2019-01-19T02:04:38.080Z,992.26
2019-01-19T02:05:40.285Z,992.25
2019-01-19T02:06:38.040Z,992.25
2019-01-19T02:07:38.024Z,992.22
2019-01-19T02:08:38.013Z,992.23
2019-01-19T02:09:37.998Z,992.19
2019-01-19T02:10:38.792Z,992.21
2019-01-19T02:11:37.981Z,992.23
2019-01-19T02:12:37.961Z,992.24
2019-01-19T02:13:37.955Z,992.2
2019-01-19T02:14:37.940Z,992.2
2019-01-19T02:15:37.917Z,992.23
2019-01-19T02:16:37.902Z,992.21
2019-01-19T02:17:37.895Z,992.22
2019-01-19T02:18:37.886Z,992.23
2019-01-19T02:19:37.860Z,992.25
2019-01-19T02:20:37.844Z,992.22
2019-01-19T02:21:37.836Z,992.21
2019-01-19T02:22:37.821Z,992.22
2019-01-19T02:23:37.813Z,992.21
2019-01-19T02:24:37.790Z,992.23
2019-01-19T02:25:37.779Z,992.16
2019-01-19T02:26:37.765Z,992.19
2019-01-19T02:27:37.756Z,992.18
2019-01-19T02:28:37.735Z,992.22
2019-01-19T02:29:37.722Z,992.17
2019-01-19T02:30:37.711Z,992.12
2019-01-19T02:31:37.700Z,992.17
2019-01-19T02:32:37.680Z,992.19
2019-01-19T02:33:37.685Z,992.16
2019-01-19T02:34:37.650Z,992.16
2019-01-19T02:35:37.644Z,992.21
2019-01-19T02:36:37.623Z,992.2
2019-01-19T02:37:37.620Z,992.18
2019-01-19T02:38:37.595Z,992.15
2019-01-19T02:39:37.582Z,992.17
2019-01-19T02:40:37.567Z,992.18
2019-01-19T02:41:37.553Z,992.12
2019-01-19T02:42:37.549Z,992.15
2019-01-19T02:43:37.526Z,992.14
2019-01-19T02:44:37.512Z,992.16
2019-01-19T02:45:37.497Z,992.09
2019-01-19T02:46:37.489Z,992.11
2019-01-19T02:47:37.473Z,992.08
2019-01-19T02:48:37.454Z,992.11
2019-01-19T02:49:37.441Z,992.05
2019-01-19T02:50:37.430Z,992.03
2019-01-19T02:51:37.412Z,992.03
2019-01-19T02:52:37.399Z,992.05
2019-01-19T02:53:37.385Z,992
2019-01-19T02:54:37.376Z,992
2019-01-19T02:55:37.363Z,991.97
2019-01-19T02:56:37.349Z,991.97
2019-01-19T02:57:37.329Z,991.98
2019-01-19T02:58:37.313Z,991.98
2019-01-19T02:59:37.299Z,991.98
2019-01-19T03:00:37.285Z,991.97
2019-01-19T03:01:37.270Z,991.97
2019-01-19T03:02:37.256Z,991.95
2019-01-19T03:03:37.244Z,991.95
2019-01-19T03:04:37.227Z,991.9
2019-01-19T03:05:37.227Z,991.94
2019-01-19T03:06:37.200Z,991.9
2019-01-19T03:07:37.184Z,991.87
2019-01-19T03:08:37.170Z,991.9
2019-01-19T03:09:37.157Z,991.91
2019-01-19T03:10:37.146Z,991.85
2019-01-19T03:11:37.131Z,991.9
2019-01-19T03:12:37.114Z,991.93
2019-01-19T03:13:37.105Z,991.89
2019-01-19T03:14:37.094Z,991.89
2019-01-19T03:15:37.072Z,991.89
2019-01-19T03:16:37.102Z,991.91
2019-01-19T03:17:37.109Z,991.9
2019-01-19T03:18:37.053Z,991.9
2019-01-19T03:19:37.018Z,991.88
2019-01-19T03:20:37.001Z,991.9
2019-01-19T03:21:36.997Z,991.91
2019-01-19T03:22:37.022Z,991.86
2019-01-19T03:23:36.961Z,991.86
2019-01-19T03:24:36.944Z,991.84
2019-01-19T03:25:36.930Z,991.87
2019-01-19T03:26:36.927Z,991.91
2019-01-19T03:27:36.903Z,991.9
2019-01-19T03:28:36.887Z,991.87
2019-01-19T03:29:36.872Z,991.84
2019-01-19T03:30:36.858Z,991.88
2019-01-19T03:31:36.848Z,991.87
2019-01-19T03:32:36.836Z,991.84
2019-01-19T03:33:36.822Z,991.83
2019-01-19T03:34:36.804Z,991.83
2019-01-19T03:35:36.869Z,991.81
2019-01-19T03:36:36.777Z,991.84
2019-01-19T03:37:36.758Z,991.81
2019-01-19T03:38:36.744Z,991.79
2019-01-19T03:39:36.731Z,991.8
2019-01-19T03:40:36.714Z,991.85
2019-01-19T03:41:36.699Z,991.8
2019-01-19T03:42:36.695Z,991.78
2019-01-19T03:43:36.672Z,991.81
2019-01-19T03:44:36.659Z,991.78
2019-01-19T03:45:36.646Z,991.81
2019-01-19T03:46:36.631Z,991.8
2019-01-19T03:47:36.616Z,991.77
2019-01-19T03:48:36.610Z,991.76
2019-01-19T03:49:36.596Z,991.78
2019-01-19T03:50:36.576Z,991.78
2019-01-19T03:51:36.562Z,991.79
2019-01-19T03:52:36.550Z,991.76
2019-01-19T03:53:36.554Z,991.77
2019-01-19T03:54:36.518Z,991.77
2019-01-19T03:55:36.504Z,991.73
2019-01-19T03:56:36.488Z,991.74
2019-01-19T03:57:36.474Z,991.73
2019-01-19T03:58:36.462Z,991.7
2019-01-19T03:59:36.459Z,991.73
2019-01-19T04:00:36.431Z,991.69
2019-01-19T04:01:36.417Z,991.68
2019-01-19T04:02:36.405Z,991.68
2019-01-19T04:03:36.389Z,991.66
2019-01-19T04:04:36.375Z,991.63
2019-01-19T04:05:36.361Z,991.65
2019-01-19T04:06:36.346Z,991.61
2019-01-19T04:07:36.333Z,991.6
2019-01-19T04:08:36.317Z,991.62
2019-01-19T04:09:36.305Z,991.59
2019-01-19T04:10:36.291Z,991.57
2019-01-19T04:11:36.281Z,991.57
2019-01-19T04:12:36.262Z,991.55
2019-01-19T04:13:36.249Z,991.59
2019-01-19T04:14:36.231Z,991.58
2019-01-19T04:15:36.217Z,991.6
2019-01-19T04:16:36.230Z,991.54
2019-01-19T04:17:36.190Z,991.54
2019-01-19T04:18:36.175Z,991.55
2019-01-19T04:19:36.161Z,991.55
2019-01-19T04:20:36.145Z,991.56
2019-01-19T04:21:36.134Z,991.57
2019-01-19T04:22:36.117Z,991.55
2019-01-19T04:23:36.108Z,991.51
2019-01-19T04:24:36.087Z,991.52
2019-01-19T04:25:36.076Z,991.54
2019-01-19T04:26:36.067Z,991.55
2019-01-19T04:27:36.048Z,991.54
2019-01-19T04:28:36.044Z,991.56
2019-01-19T04:29:36.037Z,991.56
2019-01-19T04:30:36.013Z,991.51
2019-01-19T04:31:35.994Z,991.48
2019-01-19T04:32:35.980Z,991.51
2019-01-19T04:33:35.975Z,991.53
2019-01-19T04:34:35.948Z,991.51
2019-01-19T04:35:35.933Z,991.5
2019-01-19T04:36:35.927Z,991.49
2019-01-19T04:37:35.907Z,991.5
2019-01-19T04:38:35.896Z,991.48
2019-01-19T04:39:35.885Z,991.55
2019-01-19T04:40:35.862Z,991.53
2019-01-19T04:41:35.854Z,991.52
2019-01-19T04:42:35.839Z,991.5
2019-01-19T04:43:35.822Z,991.48
2019-01-19T04:44:35.805Z,991.52
2019-01-19T04:45:35.798Z,991.52
2019-01-19T04:46:35.786Z,991.5
2019-01-19T04:47:35.780Z,991.41
2019-01-19T04:48:35.757Z,991.51
2019-01-19T04:49:35.741Z,991.49
2019-01-19T04:50:35.727Z,991.47
2019-01-19T04:51:35.709Z,991.44
2019-01-19T04:52:35.693Z,991.47
2019-01-19T04:53:35.678Z,991.45
2019-01-19T04:54:35.663Z,991.43
2019-01-19T04:55:35.661Z,991.44
2019-01-19T04:56:35.637Z,991.43
2019-01-19T04:57:35.626Z,991.42
2019-01-19T04:58:35.607Z,991.42
2019-01-19T04:59:35.600Z,991.41
2019-01-19T05:00:35.583Z,991.41
2019-01-19T05:01:35.565Z,991.39
2019-01-19T05:02:35.551Z,991.38
2019-01-19T05:03:35.536Z,991.35
2019-01-19T05:04:35.536Z,991.39
2019-01-19T05:05:35.508Z,991.33
2019-01-19T05:06:35.494Z,991.29
2019-01-19T05:07:35.478Z,991.31
2019-01-19T05:08:35.470Z,991.32
2019-01-19T05:09:35.450Z,991.31
2019-01-19T05:10:35.434Z,991.33
2019-01-19T05:11:35.425Z,991.32
2019-01-19T05:12:36.244Z,991.31
2019-01-19T05:13:35.393Z,991.29
2019-01-19T05:14:35.387Z,991.27
2019-01-19T05:15:35.370Z,991.31
2019-01-19T05:16:35.358Z,991.19
2019-01-19T05:17:35.334Z,991.24
2019-01-19T05:18:35.319Z,991.21
2019-01-19T05:19:35.302Z,991.23
2019-01-19T05:20:35.290Z,991.23
2019-01-19T05:21:35.280Z,991.23
2019-01-19T05:22:35.261Z,991.21
2019-01-19T05:23:35.247Z,991.18
2019-01-19T05:24:35.240Z,991.22
2019-01-19T05:25:35.222Z,991.18
2019-01-19T05:26:35.200Z,991.2
2019-01-19T05:27:35.193Z,991.19
2019-01-19T05:28:35.172Z,991.18
2019-01-19T05:29:35.163Z,991.18
2019-01-19T05:30:35.153Z,991.14
2019-01-19T05:31:35.141Z,991.17
2019-01-19T05:32:35.129Z,991.14
2019-01-19T05:33:35.109Z,991.12
2019-01-19T05:34:35.098Z,991.17
2019-01-19T05:35:35.078Z,991.15
2019-01-19T05:36:38.385Z,991.19
2019-01-19T05:37:35.043Z,991.2
2019-01-19T05:38:35.032Z,991.19
2019-01-19T05:39:35.022Z,991.16
2019-01-19T05:40:35.013Z,991.17
2019-01-19T05:41:34.985Z,991.14
2019-01-19T05:42:34.968Z,991.15
2019-01-19T05:43:34.958Z,991.1
2019-01-19T05:44:34.940Z,991.14
2019-01-19T05:45:34.926Z,991.12
2019-01-19T05:46:34.918Z,991.11
2019-01-19T05:47:34.894Z,991.12
2019-01-19T05:48:34.883Z,991.13
2019-01-19T05:49:34.883Z,991.09
2019-01-19T05:50:34.850Z,991.15
2019-01-19T05:51:34.839Z,991.1
2019-01-19T05:52:34.822Z,991.14
2019-01-19T05:53:34.807Z,991.14
2019-01-19T05:54:34.790Z,991.15
2019-01-19T05:55:34.778Z,991.18
2019-01-19T05:56:34.765Z,991.16
2019-01-19T05:57:34.748Z,991.2
2019-01-19T05:58:34.733Z,991.17
2019-01-19T05:59:34.719Z,991.18
2019-01-19T06:00:34.717Z,991.17
2019-01-19T06:01:34.690Z,991.2
2019-01-19T06:02:34.677Z,991.16
2019-01-19T06:03:34.661Z,991.14
2019-01-19T06:04:34.666Z,991.14
2019-01-19T06:05:34.630Z,991.13
2019-01-19T06:06:34.618Z,991.14
2019-01-19T06:07:34.602Z,991.2
2019-01-19T06:08:34.594Z,991.15
2019-01-19T06:09:34.581Z,991.21
2019-01-19T06:10:34.558Z,991.12
2019-01-19T06:11:34.541Z,991.17
2019-01-19T06:12:34.544Z,991.14
2019-01-19T06:13:34.514Z,991.13
2019-01-19T06:14:34.498Z,991.14
2019-01-19T06:15:34.487Z,991.16
2019-01-19T06:16:34.471Z,991.17
2019-01-19T06:17:34.454Z,991.15
2019-01-19T06:18:34.441Z,991.14
2019-01-19T06:19:34.424Z,991.16
2019-01-19T06:20:34.410Z,991.2
2019-01-19T06:21:34.394Z,991.16
2019-01-19T06:22:34.379Z,991.18
2019-01-19T06:23:34.373Z,991.14
2019-01-19T06:24:34.361Z,991.13
2019-01-19T06:25:34.345Z,991.17
2019-01-19T06:26:34.322Z,991.14
2019-01-19T06:27:34.306Z,991.11
2019-01-19T06:28:34.292Z,991.13
2019-01-19T06:29:34.277Z,991.08
2019-01-19T06:30:34.268Z,991.1
2019-01-19T06:31:34.253Z,991.06
2019-01-19T06:32:34.240Z,991.01
2019-01-19T06:33:34.219Z,991.02
2019-01-19T06:34:34.202Z,991.01
2019-01-19T06:35:34.197Z,991.01
2019-01-19T06:36:34.188Z,990.99
2019-01-19T06:37:34.158Z,990.99
2019-01-19T06:38:34.145Z,991.01
2019-01-19T06:39:34.130Z,991.02
2019-01-19T06:40:34.115Z,990.98
2019-01-19T06:41:34.100Z,991
2019-01-19T06:42:34.086Z,991.01
2019-01-19T06:43:34.068Z,990.98
2019-01-19T06:44:34.061Z,991.01
2019-01-19T06:45:34.038Z,991.04
2019-01-19T06:46:34.029Z,991.01
2019-01-19T06:47:34.011Z,991.03
2019-01-19T06:48:33.995Z,991.06
2019-01-19T06:49:33.979Z,991
2019-01-19T06:50:33.974Z,991
2019-01-19T06:51:33.949Z,990.98
2019-01-19T06:52:33.938Z,990.99
2019-01-19T06:53:33.918Z,990.98
2019-01-19T06:54:33.906Z,990.96
2019-01-19T06:55:33.890Z,991
2019-01-19T06:56:33.883Z,990.95
2019-01-19T06:57:33.862Z,990.99
2019-01-19T06:58:33.846Z,991.01
2019-01-19T06:59:33.833Z,991.02
2019-01-19T07:00:33.816Z,991.04
2019-01-19T07:01:33.802Z,991
2019-01-19T07:02:33.785Z,991.04
2019-01-19T07:03:33.774Z,991.08
2019-01-19T07:04:33.760Z,991.03
2019-01-19T07:05:33.742Z,991.05
2019-01-19T07:06:33.741Z,991.1
2019-01-19T07:07:33.711Z,991.08
2019-01-19T07:08:33.694Z,991.1
2019-01-19T07:09:33.682Z,991.1
2019-01-19T07:10:33.682Z,991.09
2019-01-19T07:11:33.650Z,991.08
2019-01-19T07:12:33.636Z,991.09
2019-01-19T07:13:33.630Z,991.07
2019-01-19T07:14:33.609Z,991.08
2019-01-19T07:15:33.592Z,991.1
2019-01-19T07:16:33.578Z,991.08
2019-01-19T07:17:33.560Z,991.12
2019-01-19T07:18:33.548Z,991.1
2019-01-19T07:19:33.531Z,991.1
2019-01-19T07:20:33.520Z,991.11
2019-01-19T07:21:33.503Z,991.09
2019-01-19T07:22:33.487Z,991.1
2019-01-19T07:23:33.472Z,991.13
2019-01-19T07:24:33.462Z,991.11
2019-01-19T07:25:33.446Z,991.12
2019-01-19T07:26:33.429Z,991.11
2019-01-19T07:27:33.418Z,991.15
2019-01-19T07:28:33.400Z,991.12
2019-01-19T07:29:33.386Z,991.16
2019-01-19T07:30:33.369Z,991.1
2019-01-19T07:31:33.355Z,991.12
2019-01-19T07:32:33.347Z,991.13
2019-01-19T07:33:33.327Z,991.13
2019-01-19T07:34:33.318Z,991.14
2019-01-19T07:35:33.295Z,991.15
2019-01-19T07:36:33.284Z,991.14
2019-01-19T07:37:33.268Z,991.18
2019-01-19T07:38:33.261Z,991.17
2019-01-19T07:39:33.242Z,991.19
2019-01-19T07:40:33.231Z,991.14
2019-01-19T07:41:33.214Z,991.17
2019-01-19T07:42:34.015Z,991.16
2019-01-19T07:43:33.202Z,991.12
2019-01-19T07:44:33.174Z,991.13
2019-01-19T07:45:33.158Z,991.14
2019-01-19T07:46:33.146Z,991.13
2019-01-19T07:47:33.136Z,991.09
2019-01-19T07:48:33.119Z,991.14
2019-01-19T07:49:33.117Z,991.11
2019-01-19T07:50:33.095Z,991.14
2019-01-19T07:51:33.079Z,991.16
2019-01-19T07:52:33.070Z,991.17
2019-01-19T07:53:33.063Z,991.17
2019-01-19T07:54:33.042Z,991.16
2019-01-19T07:55:33.051Z,991.16
2019-01-19T07:56:33.011Z,991.16
2019-01-19T07:57:33.002Z,991.17
2019-01-19T07:58:32.984Z,991.18
2019-01-19T07:59:32.972Z,991.2
2019-01-19T08:00:32.958Z,991.15
2019-01-19T08:01:32.948Z,991.2
2019-01-19T08:02:32.929Z,991.18
2019-01-19T08:03:32.916Z,991.18
2019-01-19T08:04:32.907Z,991.19
2019-01-19T08:05:32.890Z,991.14
2019-01-19T08:06:32.878Z,991.16
2019-01-19T08:07:32.865Z,991.18
2019-01-19T08:08:32.863Z,991.16
2019-01-19T08:09:33.648Z,991.14
2019-01-19T08:10:32.822Z,991.16
2019-01-19T08:11:32.810Z,991.22
2019-01-19T08:12:32.798Z,991.19
2019-01-19T08:13:32.784Z,991.18
2019-01-19T08:14:32.782Z,991.2
2019-01-19T08:15:32.758Z,991.18
2019-01-19T08:16:32.749Z,991.2
2019-01-19T08:17:32.740Z,991.22
2019-01-19T08:18:32.727Z,991.25
2019-01-19T08:19:32.725Z,991.26
2019-01-19T08:20:32.698Z,991.27
2019-01-19T08:21:32.681Z,991.27
2019-01-19T08:22:32.663Z,991.25
2019-01-19T08:23:32.660Z,991.26
2019-01-19T08:24:32.639Z,991.26
2019-01-19T08:25:32.633Z,991.28
2019-01-19T08:26:32.622Z,991.24
2019-01-19T08:27:32.599Z,991.2
2019-01-19T08:28:32.587Z,991.18
2019-01-19T08:29:32.570Z,991.18
2019-01-19T08:30:32.560Z,991.2
2019-01-19T08:31:32.546Z,991.24
2019-01-19T08:32:32.531Z,991.24
2019-01-19T08:33:32.523Z,991.22
2019-01-19T08:34:32.506Z,991.22
2019-01-19T08:35:32.496Z,991.27
2019-01-19T08:36:32.479Z,991.25
2019-01-19T08:37:32.471Z,991.25
2019-01-19T08:38:32.460Z,991.24
2019-01-19T08:39:32.440Z,991.29
2019-01-19T08:40:32.423Z,991.27
2019-01-19T08:41:32.421Z,991.28
2019-01-19T08:42:32.402Z,991.28
2019-01-19T08:43:32.396Z,991.2
2019-01-19T08:44:32.375Z,991.23
2019-01-19T08:45:32.360Z,991.21
2019-01-19T08:46:32.348Z,991.22
2019-01-19T08:47:32.333Z,991.19
2019-01-19T08:48:32.324Z,991.22
2019-01-19T08:49:32.309Z,991.2
2019-01-19T08:50:32.297Z,991.2
2019-01-19T08:51:32.282Z,991.22
2019-01-19T08:52:32.268Z,991.16
2019-01-19T08:53:32.260Z,991.19
2019-01-19T08:54:32.243Z,991.23
2019-01-19T08:55:32.230Z,991.19
2019-01-19T08:56:32.231Z,991.19
2019-01-19T08:57:32.217Z,991.19
2019-01-19T08:58:32.207Z,991.2
2019-01-19T08:59:32.176Z,991.18
2019-01-19T09:00:32.168Z,991.2
2019-01-19T09:01:32.200Z,991.19
2019-01-19T09:02:32.140Z,991.2
2019-01-19T09:03:32.129Z,991.17
2019-01-19T09:04:32.114Z,991.12
2019-01-19T09:05:32.106Z,991.18
2019-01-19T09:06:32.087Z,991.17
2019-01-19T09:07:33.757Z,991.19
2019-01-19T09:08:32.063Z,991.21
2019-01-19T09:09:32.049Z,991.16
2019-01-19T09:10:32.056Z,991.2
2019-01-19T09:11:32.029Z,991.18
2019-01-19T09:12:32.013Z,991.21
2019-01-19T09:13:31.997Z,991.14
2019-01-19T09:14:31.984Z,991.15
2019-01-19T09:15:31.974Z,991.17
2019-01-19T09:16:31.961Z,991.14
2019-01-19T09:17:31.946Z,991.15
2019-01-19T09:18:31.945Z,991.11
2019-01-19T09:19:31.924Z,991.13
2019-01-19T09:20:31.908Z,991.11
2019-01-19T09:21:31.903Z,991.1
2019-01-19T09:22:32.068Z,991.17
2019-01-19T09:23:31.885Z,991.15
2019-01-19T09:24:31.859Z,991.12
2019-01-19T09:25:31.846Z,991.12
2019-01-19T09:26:31.835Z,991.14
2019-01-19T09:27:31.820Z,991.11
2019-01-19T09:28:32.759Z,991.09
2019-01-19T09:29:31.799Z,991.12
2019-01-19T09:30:31.783Z,991.13
2019-01-19T09:31:31.771Z,991.16
2019-01-19T09:32:31.762Z,991.11
2019-01-19T09:33:31.749Z,991.18
2019-01-19T09:34:33.974Z,991.16
2019-01-19T09:35:31.722Z,991.13
2019-01-19T09:36:31.714Z,991.13
2019-01-19T09:37:31.699Z,991.14
2019-01-19T09:38:31.689Z,991.14
2019-01-19T09:39:31.682Z,991.16
2019-01-19T09:40:31.659Z,991.2
2019-01-19T09:41:31.650Z,991.1
2019-01-19T09:42:31.638Z,991.11
2019-01-19T09:43:31.629Z,991.15
2019-01-19T09:44:31.614Z,991.11
2019-01-19T09:45:32.609Z,991.1
2019-01-19T09:46:31.589Z,991.09
2019-01-19T09:47:31.581Z,991.12
2019-01-19T09:48:31.568Z,991.11
2019-01-19T09:49:31.554Z,991.14
2019-01-19T09:50:31.563Z,991.13
2019-01-19T09:51:31.644Z,991.19
2019-01-19T09:52:31.518Z,991.13
2019-01-19T09:53:31.505Z,991.1
2019-01-19T09:54:31.500Z,991.16
2019-01-19T09:55:31.485Z,991.16
2019-01-19T09:56:31.471Z,991.12
2019-01-19T09:57:31.455Z,991.11
2019-01-19T09:58:31.447Z,991.14
2019-01-19T09:59:31.437Z,991.1
2019-01-19T10:00:35.626Z,991.1
2019-01-19T10:01:31.410Z,991.07
2019-01-19T10:02:31.408Z,991.11
2019-01-19T10:03:31.521Z,991.05
2019-01-19T10:04:31.377Z,991.07
2019-01-19T10:05:31.363Z,991.08
2019-01-19T10:06:31.350Z,991.1
2019-01-19T10:07:31.339Z,991.14
2019-01-19T10:08:31.333Z,991.07
2019-01-19T10:09:31.318Z,991.03
2019-01-19T10:10:31.312Z,991.03
2019-01-19T10:11:31.296Z,991.04
2019-01-19T10:12:31.304Z,990.99
2019-01-19T10:13:31.273Z,991
2019-01-19T10:14:31.262Z,991.03
2019-01-19T10:15:31.248Z,991.01
2019-01-19T10:16:31.237Z,991
2019-01-19T10:17:31.228Z,991.01
2019-01-19T10:18:31.267Z,990.97
2019-01-19T10:19:31.208Z,990.93
2019-01-19T10:20:31.418Z,990.94
2019-01-19T10:21:31.192Z,990.98
2019-01-19T10:22:31.168Z,990.97
2019-01-19T10:23:31.159Z,990.97
2019-01-19T10:24:31.150Z,990.98
2019-01-19T10:25:31.142Z,990.97
2019-01-19T10:26:31.125Z,990.99
2019-01-19T10:27:37.352Z,990.98
2019-01-19T10:28:31.102Z,990.95
2019-01-19T10:29:31.090Z,990.91
2019-01-19T10:30:31.089Z,990.94
2019-01-19T10:31:31.079Z,990.92
2019-01-19T10:32:31.062Z,990.93
2019-01-19T10:33:31.046Z,990.91
2019-01-19T10:34:31.034Z,990.9
2019-01-19T10:35:31.033Z,990.92
2019-01-19T10:36:31.015Z,990.92
2019-01-19T10:37:31.005Z,990.91
2019-01-19T10:38:30.991Z,990.92
2019-01-19T10:39:30.981Z,990.91
2019-01-19T10:40:30.979Z,990.87
2019-01-19T10:41:30.964Z,990.85
2019-01-19T10:42:30.944Z,990.88
2019-01-19T10:43:30.946Z,990.95
2019-01-19T10:44:30.926Z,990.91
2019-01-19T10:45:30.922Z,990.92
2019-01-19T10:46:30.901Z,990.91
2019-01-19T10:47:30.889Z,990.91
2019-01-19T10:48:30.878Z,990.85
2019-01-19T10:49:30.869Z,990.86
2019-01-19T10:50:30.860Z,990.86
2019-01-19T10:51:30.843Z,990.79
2019-01-19T10:52:30.847Z,990.81
2019-01-19T10:53:30.823Z,990.77
2019-01-19T10:54:30.835Z,990.77
2019-01-19T10:55:30.810Z,990.78
2019-01-19T10:56:30.789Z,990.75
2019-01-19T10:57:30.775Z,990.78
2019-01-19T10:58:30.765Z,990.77
2019-01-19T10:59:30.753Z,990.8
2019-01-19T11:00:30.742Z,990.77
2019-01-19T11:01:30.731Z,990.74
2019-01-19T11:02:30.729Z,990.67
2019-01-19T11:03:30.708Z,990.72
2019-01-19T11:04:30.696Z,990.7
2019-01-19T11:05:30.690Z,990.71
2019-01-19T11:06:30.671Z,990.67
2019-01-19T11:07:30.661Z,990.64
2019-01-19T11:08:30.650Z,990.63
2019-01-19T11:09:30.638Z,990.59
2019-01-19T11:10:30.680Z,990.58
2019-01-19T11:11:30.619Z,990.6
2019-01-19T11:12:30.605Z,990.62
2019-01-19T11:13:30.594Z,990.62
2019-01-19T11:14:30.583Z,990.55
2019-01-19T11:15:30.571Z,990.58
2019-01-19T11:16:30.561Z,990.52
2019-01-19T11:17:30.548Z,990.48
2019-01-19T11:18:30.534Z,990.53
2019-01-19T11:19:30.532Z,990.51
2019-01-19T11:20:30.514Z,990.5
2019-01-19T11:21:30.501Z,990.52
2019-01-19T11:22:30.490Z,990.44
2019-01-19T11:23:30.482Z,990.5
2019-01-19T11:24:30.465Z,990.41
2019-01-19T11:25:30.461Z,990.37
2019-01-19T11:26:30.445Z,990.43
2019-01-19T11:27:30.429Z,990.4
2019-01-19T11:28:30.421Z,990.39
2019-01-19T11:29:30.424Z,990.31
2019-01-19T11:30:30.406Z,990.37
2019-01-19T11:31:30.384Z,990.38
2019-01-19T11:32:30.389Z,990.29
2019-01-19T11:33:30.365Z,990.34
2019-01-19T11:34:30.363Z,990.35
2019-01-19T11:35:30.333Z,990.31
2019-01-19T11:36:30.322Z,990.33
2019-01-19T11:37:30.308Z,990.33
2019-01-19T11:38:30.305Z,990.35
2019-01-19T11:39:30.287Z,990.33
2019-01-19T11:40:30.283Z,990.26
2019-01-19T11:41:30.263Z,990.25
2019-01-19T11:42:30.256Z,990.23
2019-01-19T11:43:30.240Z,990.28
2019-01-19T11:44:30.235Z,990.26
2019-01-19T11:45:30.219Z,990.22
2019-01-19T11:46:30.204Z,990.22
2019-01-19T11:47:30.210Z,990.25
2019-01-19T11:48:30.179Z,990.23
2019-01-19T11:49:30.168Z,990.24
2019-01-19T11:50:30.159Z,990.2
2019-01-19T11:51:30.143Z,990.21
2019-01-19T11:52:30.133Z,990.2
2019-01-19T11:53:30.121Z,990.23
2019-01-19T11:54:30.111Z,990.21
2019-01-19T11:55:30.122Z,990.18
2019-01-19T11:56:30.084Z,990.18
2019-01-19T11:57:30.072Z,990.17
2019-01-19T11:58:30.079Z,990.13
2019-01-19T11:59:30.047Z,990.1
2019-01-19T12:00:30.035Z,990.16
2019-01-19T12:01:30.029Z,990.11
2019-01-19T12:02:36.756Z,990.11
2019-01-19T12:03:29.998Z,990.08
2019-01-19T12:04:29.987Z,990.05
2019-01-19T12:05:29.977Z,990.04
2019-01-19T12:06:29.968Z,990.07
2019-01-19T12:07:29.954Z,990.01
2019-01-19T12:08:29.942Z,990.04
2019-01-19T12:09:29.929Z,990.03
2019-01-19T12:10:29.916Z,990.05
2019-01-19T12:11:29.911Z,990.01
2019-01-19T12:12:29.912Z,989.98
2019-01-19T12:13:29.878Z,989.97
2019-01-19T12:14:29.873Z,989.94
2019-01-19T12:15:29.857Z,989.97
2019-01-19T12:16:29.853Z,989.98
2019-01-19T12:17:29.832Z,989.95
2019-01-19T12:18:29.822Z,989.89
2019-01-19T12:19:29.807Z,989.89
2019-01-19T12:20:29.805Z,989.91
2019-01-19T12:21:29.779Z,989.9
2019-01-19T12:22:29.776Z,989.87
2019-01-19T12:23:29.757Z,989.9
2019-01-19T12:24:29.746Z,989.86
2019-01-19T12:25:29.734Z,989.85
2019-01-19T12:26:29.721Z,989.8
2019-01-19T12:27:29.708Z,989.78
2019-01-19T12:28:29.699Z,989.81
2019-01-19T12:29:29.686Z,989.79
2019-01-19T12:30:29.673Z,989.77
2019-01-19T12:31:29.661Z,989.76